Terminal Aerodrome Forecast
Issued by NWS Atlanta, GA

Home | Current Version | Previous Version | Text Only | Print | Product List | Glossary On
Versions: 1 2 3 4 5 6 7 8 9 10 11 12 13 14 15 16
000
FTUS42 KFFC 300523
TAFMCN
TAF
KMCN 300523Z 3006/3106 26009KT P6SM VCSH BKN025 OVC080
     FM300800 30013G18KT P6SM OVC025
     FM301300 32012G17KT P6SM SCT035
     FM301600 32014G23KT P6SM SCT150
     FM310000 32004KT P6SM SKC=

USA.gov is the U.S. government's official web portal to all federal, state and local government web resources and services.